AUA26K LOWW-LIMC
Flight info
| Callsign | AUA26K |
|---|---|
| Flight time | 1h 15m |
| Altitude | 34000 |
| Route | OSPEN DCT ABRUK DCT SETAL DCT DETSA/N0426F330 DCT RENTA DCT ATPED DCT LUSIL DCT EVRIP |
| Aircraft | A320/M-SDE3FGHIRWY/LB1 |
Departure
| Time | 2026-04-22 20:32 |
|---|---|
| Airport | Vienna International Airport (LOWW) |
Arrival
| Time | 2026-04-22 21:48 |
|---|---|
| Airport | Milan Malpensa International Airport (LIMC) |
| Time | Latitude | Longitude | Altitude | Speed | Heading |
|---|---|---|---|---|---|
| 2026-04-22 20:08 | 48.11769 | 16.56127 | 595 ft | 0 kts | 26° |
| 2026-04-22 20:20 | 48.11757 | 16.56119 | 595 ft | 2 kts | 24° |
| 2026-04-22 20:20 | 48.11744 | 16.56109 | 595 ft | 2 kts | 32° |
| 2026-04-22 20:21 | 48.11732 | 16.56095 | 595 ft | 2 kts | 47° |
| 2026-04-22 20:21 | 48.11723 | 16.56077 | 595 ft | 2 kts | 61° |
| 2026-04-22 20:21 | 48.11717 | 16.56057 | 595 ft | 2 kts | 74° |
| 2026-04-22 20:21 | 48.11715 | 16.56035 | 594 ft | 2 kts | 88° |
| 2026-04-22 20:22 | 48.11715 | 16.56012 | 594 ft | 2 kts | 102° |
| 2026-04-22 20:22 | 48.11719 | 16.55993 | 594 ft | 0 kts | 114° |
| 2026-04-22 20:22 | 48.11722 | 16.55985 | 594 ft | 0 kts | 116° |
| 2026-04-22 20:22 | 48.11722 | 16.55984 | 594 ft | 0 kts | 116° |
| 2026-04-22 20:24 | 48.11720 | 16.55990 | 594 ft | 1 kts | 116° |
| 2026-04-22 20:25 | 48.11713 | 16.56013 | 594 ft | 4 kts | 116° |
| 2026-04-22 20:25 | 48.11695 | 16.56066 | 595 ft | 7 kts | 116° |
| 2026-04-22 20:25 | 48.11669 | 16.56144 | 596 ft | 9 kts | 118° |
| 2026-04-22 20:25 | 48.11617 | 16.56188 | 596 ft | 7 kts | 186° |
| 2026-04-22 20:26 | 48.11559 | 16.56211 | 597 ft | 10 kts | 135° |
| 2026-04-22 20:26 | 48.11521 | 16.56318 | 598 ft | 12 kts | 115° |
| 2026-04-22 20:26 | 48.11479 | 16.56446 | 599 ft | 14 kts | 116° |
| 2026-04-22 20:26 | 48.11434 | 16.56586 | 601 ft | 14 kts | 116° |
| 2026-04-22 20:27 | 48.11393 | 16.56711 | 603 ft | 11 kts | 116° |
| 2026-04-22 20:27 | 48.11357 | 16.56818 | 604 ft | 11 kts | 116° |
| 2026-04-22 20:27 | 48.11322 | 16.56928 | 605 ft | 11 kts | 116° |
| 2026-04-22 20:27 | 48.11286 | 16.57038 | 606 ft | 11 kts | 116° |
| 2026-04-22 20:28 | 48.11268 | 16.57094 | 606 ft | 0 kts | 116° |
| 2026-04-22 20:28 | 48.11266 | 16.57100 | 606 ft | 1 kts | 116° |
| 2026-04-22 20:28 | 48.11261 | 16.57115 | 606 ft | 2 kts | 116° |
| 2026-04-22 20:28 | 48.11246 | 16.57162 | 607 ft | 6 kts | 116° |
| 2026-04-22 20:29 | 48.11220 | 16.57239 | 607 ft | 9 kts | 116° |
| 2026-04-22 20:29 | 48.11186 | 16.57344 | 608 ft | 12 kts | 116° |
| 2026-04-22 20:29 | 48.11145 | 16.57472 | 608 ft | 14 kts | 116° |
| 2026-04-22 20:29 | 48.11096 | 16.57616 | 608 ft | 14 kts | 128° |
| 2026-04-22 20:30 | 48.11028 | 16.57635 | 609 ft | 0 kts | 205° |
| 2026-04-22 20:30 | 48.11019 | 16.57628 | 609 ft | 2 kts | 205° |
| 2026-04-22 20:30 | 48.10984 | 16.57602 | 610 ft | 9 kts | 207° |
| 2026-04-22 20:31 | 48.10926 | 16.57536 | 610 ft | 10 kts | 258° |
| 2026-04-22 20:31 | 48.10959 | 16.57402 | 610 ft | 30 kts | 296° |
| 2026-04-22 20:31 | 48.11161 | 16.56779 | 606 ft | 100 kts | 296° |
| 2026-04-22 20:31 | 48.11556 | 16.55568 | 598 ft | 156 kts | 296° |
| 2026-04-22 20:32 | 48.12031 | 16.54058 | 1083 ft | 163 kts | 297° |
| 2026-04-22 20:32 | 48.12235 | 16.52432 | 1792 ft | 169 kts | 260° |
| 2026-04-22 20:32 | 48.11539 | 16.51000 | 2449 ft | 180 kts | 223° |
| 2026-04-22 20:32 | 48.10454 | 16.49923 | 2927 ft | 197 kts | 217° |
| 2026-04-22 20:33 | 48.09260 | 16.48788 | 3373 ft | 213 kts | 219° |
| 2026-04-22 20:33 | 48.08013 | 16.47482 | 3770 ft | 233 kts | 221° |
| 2026-04-22 20:33 | 48.06712 | 16.45915 | 4217 ft | 248 kts | 225° |
| 2026-04-22 20:33 | 48.05347 | 16.44159 | 4707 ft | 267 kts | 226° |
| 2026-04-22 20:34 | 48.03925 | 16.42300 | 5023 ft | 281 kts | 226° |
| 2026-04-22 20:34 | 48.02411 | 16.40322 | 5676 ft | 290 kts | 226° |
| 2026-04-22 20:34 | 48.00925 | 16.38387 | 6620 ft | 289 kts | 225° |
| 2026-04-22 20:34 | 47.99401 | 16.36400 | 7466 ft | 292 kts | 225° |
| 2026-04-22 20:35 | 47.97854 | 16.34381 | 8247 ft | 297 kts | 224° |
| 2026-04-22 20:35 | 47.96315 | 16.32330 | 9022 ft | 301 kts | 226° |
| 2026-04-22 20:35 | 47.94858 | 16.30085 | 9823 ft | 304 kts | 231° |
| 2026-04-22 20:35 | 47.93451 | 16.27748 | 10535 ft | 310 kts | 231° |
| 2026-04-22 20:36 | 47.91971 | 16.25263 | 10981 ft | 326 kts | 231° |
| 2026-04-22 20:36 | 47.90442 | 16.22701 | 11631 ft | 333 kts | 231° |
| 2026-04-22 20:36 | 47.88891 | 16.20110 | 12347 ft | 337 kts | 231° |
| 2026-04-22 20:36 | 47.87335 | 16.17515 | 13055 ft | 341 kts | 230° |
| 2026-04-22 20:37 | 47.85755 | 16.14887 | 13736 ft | 344 kts | 230° |
| 2026-04-22 20:37 | 47.84144 | 16.12207 | 14404 ft | 348 kts | 230° |
| 2026-04-22 20:37 | 47.82523 | 16.09518 | 15035 ft | 353 kts | 230° |
| 2026-04-22 20:37 | 47.80867 | 16.06771 | 15661 ft | 357 kts | 230° |
| 2026-04-22 20:38 | 47.79207 | 16.04023 | 16267 ft | 361 kts | 230° |
| 2026-04-22 20:38 | 47.77528 | 16.01245 | 16864 ft | 365 kts | 230° |
| 2026-04-22 20:38 | 47.75820 | 15.98420 | 17459 ft | 369 kts | 230° |
| 2026-04-22 20:38 | 47.74101 | 15.95582 | 18018 ft | 373 kts | 229° |
| 2026-04-22 20:39 | 47.72339 | 15.92675 | 18574 ft | 377 kts | 229° |
| 2026-04-22 20:39 | 47.70598 | 15.89806 | 19141 ft | 380 kts | 229° |
| 2026-04-22 20:39 | 47.68811 | 15.86863 | 19685 ft | 383 kts | 229° |
| 2026-04-22 20:39 | 47.67041 | 15.83954 | 20230 ft | 386 kts | 229° |
| 2026-04-22 20:40 | 47.65231 | 15.80979 | 20785 ft | 389 kts | 229° |
| 2026-04-22 20:40 | 47.63416 | 15.77998 | 21313 ft | 392 kts | 229° |
| 2026-04-22 20:40 | 47.61576 | 15.74983 | 21829 ft | 395 kts | 229° |
| 2026-04-22 20:40 | 47.59723 | 15.71948 | 22338 ft | 398 kts | 229° |
| 2026-04-22 20:41 | 47.57879 | 15.68930 | 22822 ft | 401 kts | 229° |
| 2026-04-22 20:41 | 47.55981 | 15.65830 | 23313 ft | 404 kts | 229° |
| 2026-04-22 20:41 | 47.54098 | 15.62762 | 23793 ft | 407 kts | 229° |
| 2026-04-22 20:41 | 47.52191 | 15.59640 | 24255 ft | 410 kts | 230° |
| 2026-04-22 20:42 | 47.50380 | 15.56387 | 24676 ft | 413 kts | 234° |
| 2026-04-22 20:42 | 47.48828 | 15.52810 | 25093 ft | 414 kts | 244° |
| 2026-04-22 20:42 | 47.47680 | 15.48884 | 25510 ft | 415 kts | 255° |
| 2026-04-22 20:42 | 47.46849 | 15.44762 | 25930 ft | 416 kts | 257° |
| 2026-04-22 20:43 | 47.46080 | 15.40620 | 26306 ft | 419 kts | 258° |
| 2026-04-22 20:43 | 47.45303 | 15.36449 | 26654 ft | 423 kts | 257° |
| 2026-04-22 20:43 | 47.44510 | 15.32264 | 27014 ft | 426 kts | 256° |
| 2026-04-22 20:43 | 47.43692 | 15.28026 | 27365 ft | 429 kts | 256° |
| 2026-04-22 20:44 | 47.42856 | 15.23744 | 27722 ft | 431 kts | 256° |
| 2026-04-22 20:44 | 47.42027 | 15.19514 | 28055 ft | 434 kts | 256° |
| 2026-04-22 20:44 | 47.41183 | 15.15232 | 28393 ft | 436 kts | 256° |
| 2026-04-22 20:44 | 47.40331 | 15.10911 | 28726 ft | 439 kts | 256° |
| 2026-04-22 20:45 | 47.39473 | 15.06588 | 29037 ft | 442 kts | 256° |
| 2026-04-22 20:45 | 47.38602 | 15.02198 | 29356 ft | 444 kts | 256° |
| 2026-04-22 20:45 | 47.37738 | 14.97857 | 29661 ft | 446 kts | 256° |
| 2026-04-22 20:45 | 47.36849 | 14.93399 | 29955 ft | 449 kts | 255° |
| 2026-04-22 20:46 | 47.35077 | 14.84539 | 30532 ft | 453 kts | 255° |
| 2026-04-22 20:46 | 47.34181 | 14.80071 | 30836 ft | 454 kts | 255° |
| 2026-04-22 20:46 | 47.33294 | 14.75670 | 31114 ft | 455 kts | 255° |
| 2026-04-22 20:47 | 47.32390 | 14.71189 | 31395 ft | 456 kts | 255° |
| 2026-04-22 20:47 | 47.31476 | 14.66665 | 31656 ft | 457 kts | 255° |
| 2026-04-22 20:47 | 47.30577 | 14.62224 | 31885 ft | 459 kts | 256° |
| 2026-04-22 20:47 | 47.29655 | 14.57684 | 32142 ft | 459 kts | 256° |
| 2026-04-22 20:48 | 47.28742 | 14.53189 | 32373 ft | 459 kts | 256° |
| 2026-04-22 20:48 | 47.27835 | 14.48740 | 32587 ft | 460 kts | 256° |
| 2026-04-22 20:48 | 47.26912 | 14.44218 | 32795 ft | 461 kts | 256° |
| 2026-04-22 20:48 | 47.25986 | 14.39690 | 32997 ft | 462 kts | 256° |
| 2026-04-22 20:49 | 47.25059 | 14.35162 | 33209 ft | 462 kts | 256° |
| 2026-04-22 20:49 | 47.24124 | 14.30621 | 33389 ft | 462 kts | 255° |
| 2026-04-22 20:49 | 47.23189 | 14.26085 | 33597 ft | 463 kts | 255° |
| 2026-04-22 20:49 | 47.22239 | 14.21498 | 33762 ft | 464 kts | 255° |
| 2026-04-22 20:50 | 47.21299 | 14.16976 | 33936 ft | 464 kts | 255° |
| 2026-04-22 20:50 | 47.20349 | 14.12416 | 34111 ft | 464 kts | 255° |
| 2026-04-22 20:50 | 47.18460 | 14.03373 | 34164 ft | 463 kts | 255° |
| 2026-04-22 20:51 | 47.16562 | 13.94312 | 34179 ft | 461 kts | 256° |
| 2026-04-22 20:51 | 47.14677 | 13.85350 | 34188 ft | 462 kts | 256° |
| 2026-04-22 20:52 | 47.12775 | 13.76355 | 34189 ft | 461 kts | 256° |
| 2026-04-22 20:52 | 47.10863 | 13.67343 | 34193 ft | 461 kts | 256° |
| 2026-04-22 20:53 | 47.08955 | 13.58394 | 34186 ft | 459 kts | 256° |
| 2026-04-22 20:53 | 47.07045 | 13.49476 | 34186 ft | 459 kts | 256° |
| 2026-04-22 20:54 | 47.05133 | 13.40584 | 34183 ft | 458 kts | 256° |
| 2026-04-22 20:54 | 47.03210 | 13.31685 | 34174 ft | 457 kts | 255° |
| 2026-04-22 20:55 | 47.01279 | 13.22780 | 34169 ft | 457 kts | 255° |
| 2026-04-22 20:55 | 47.00126 | 13.17483 | 34169 ft | 457 kts | 255° |
| 2026-04-22 20:56 | 46.98573 | 13.10323 | 34064 ft | 465 kts | 254° |
| 2026-04-22 20:56 | 46.96606 | 13.01365 | 34045 ft | 466 kts | 254° |
| 2026-04-22 20:57 | 46.94603 | 12.92292 | 34074 ft | 464 kts | 254° |
| 2026-04-22 20:57 | 46.92633 | 12.83407 | 34141 ft | 459 kts | 255° |
| 2026-04-22 20:58 | 46.90664 | 12.74526 | 34192 ft | 457 kts | 255° |
| 2026-04-22 20:58 | 46.88705 | 12.65728 | 34198 ft | 455 kts | 255° |
| 2026-04-22 20:59 | 46.86750 | 12.56979 | 34250 ft | 454 kts | 255° |
| 2026-04-22 20:59 | 46.84790 | 12.48258 | 34286 ft | 452 kts | 256° |
| 2026-04-22 21:00 | 46.82825 | 12.39535 | 34297 ft | 453 kts | 256° |
| 2026-04-22 21:00 | 46.80826 | 12.30862 | 34274 ft | 452 kts | 252° |
| 2026-04-22 21:01 | 46.78300 | 12.22443 | 34261 ft | 455 kts | 246° |
| 2026-04-22 21:01 | 46.75488 | 12.14260 | 34263 ft | 454 kts | 246° |
| 2026-04-22 21:02 | 46.72644 | 12.06008 | 34264 ft | 453 kts | 247° |
| 2026-04-22 21:02 | 46.69829 | 11.97846 | 34281 ft | 451 kts | 246° |
| 2026-04-22 21:03 | 46.67022 | 11.89729 | 34290 ft | 450 kts | 247° |
| 2026-04-22 21:03 | 46.64207 | 11.81609 | 34291 ft | 449 kts | 247° |
| 2026-04-22 21:04 | 46.61400 | 11.73540 | 34278 ft | 448 kts | 247° |
| 2026-04-22 21:04 | 46.58597 | 11.65511 | 34264 ft | 447 kts | 247° |
| 2026-04-22 21:05 | 46.55783 | 11.57466 | 34263 ft | 446 kts | 248° |
| 2026-04-22 21:05 | 46.52975 | 11.49462 | 34274 ft | 446 kts | 248° |
| 2026-04-22 21:06 | 46.50159 | 11.41462 | 34283 ft | 446 kts | 248° |
| 2026-04-22 21:06 | 46.47358 | 11.33534 | 34280 ft | 444 kts | 247° |
| 2026-04-22 21:07 | 46.44548 | 11.25596 | 34281 ft | 445 kts | 247° |
| 2026-04-22 21:07 | 46.41710 | 11.17608 | 34273 ft | 444 kts | 247° |
| 2026-04-22 21:08 | 46.38900 | 11.09718 | 34262 ft | 442 kts | 248° |
| 2026-04-22 21:08 | 46.37491 | 11.05773 | 34089 ft | 436 kts | 248° |
| 2026-04-22 21:08 | 46.36119 | 11.01937 | 33661 ft | 434 kts | 248° |
| 2026-04-22 21:09 | 46.34726 | 10.98042 | 33171 ft | 433 kts | 248° |
| 2026-04-22 21:09 | 46.33361 | 10.94227 | 32714 ft | 430 kts | 248° |
| 2026-04-22 21:09 | 46.31998 | 10.90430 | 32277 ft | 427 kts | 248° |
| 2026-04-22 21:09 | 46.30640 | 10.86657 | 31836 ft | 423 kts | 248° |
| 2026-04-22 21:10 | 46.29317 | 10.82910 | 31401 ft | 419 kts | 249° |
| 2026-04-22 21:10 | 46.28017 | 10.79164 | 30956 ft | 416 kts | 249° |
| 2026-04-22 21:10 | 46.26722 | 10.75428 | 30490 ft | 412 kts | 249° |
| 2026-04-22 21:10 | 46.25446 | 10.71746 | 29987 ft | 410 kts | 249° |
| 2026-04-22 21:11 | 46.24186 | 10.68120 | 29492 ft | 407 kts | 249° |
| 2026-04-22 21:11 | 46.22925 | 10.64500 | 29017 ft | 404 kts | 249° |
| 2026-04-22 21:11 | 46.21670 | 10.60906 | 28527 ft | 401 kts | 249° |
| 2026-04-22 21:11 | 46.20425 | 10.57345 | 28047 ft | 397 kts | 249° |
| 2026-04-22 21:12 | 46.19199 | 10.53840 | 27569 ft | 394 kts | 249° |
| 2026-04-22 21:12 | 46.17957 | 10.50300 | 27082 ft | 391 kts | 249° |
| 2026-04-22 21:12 | 46.16748 | 10.46855 | 26587 ft | 389 kts | 248° |
| 2026-04-22 21:12 | 46.15519 | 10.43364 | 26077 ft | 386 kts | 248° |
| 2026-04-22 21:13 | 46.14318 | 10.39957 | 25600 ft | 384 kts | 248° |
| 2026-04-22 21:13 | 46.13110 | 10.36538 | 25092 ft | 381 kts | 248° |
| 2026-04-22 21:13 | 46.11912 | 10.33149 | 24601 ft | 379 kts | 247° |
| 2026-04-22 21:13 | 46.10720 | 10.29777 | 24083 ft | 377 kts | 247° |
| 2026-04-22 21:14 | 46.09542 | 10.26447 | 23549 ft | 375 kts | 246° |
| 2026-04-22 21:14 | 46.08355 | 10.23099 | 23041 ft | 372 kts | 246° |
| 2026-04-22 21:14 | 46.07178 | 10.19789 | 22560 ft | 370 kts | 246° |
| 2026-04-22 21:14 | 46.06031 | 10.16564 | 22094 ft | 367 kts | 246° |
| 2026-04-22 21:15 | 46.04869 | 10.13300 | 21622 ft | 364 kts | 246° |
| 2026-04-22 21:15 | 46.03739 | 10.10090 | 21154 ft | 361 kts | 247° |
| 2026-04-22 21:15 | 46.02644 | 10.06842 | 20672 ft | 359 kts | 248° |
| 2026-04-22 21:15 | 46.01567 | 10.03614 | 20211 ft | 357 kts | 248° |
| 2026-04-22 21:16 | 46.00505 | 10.00438 | 19751 ft | 354 kts | 248° |
| 2026-04-22 21:16 | 45.99429 | 9.97232 | 19274 ft | 353 kts | 248° |
| 2026-04-22 21:16 | 45.98358 | 9.94043 | 18811 ft | 351 kts | 248° |
| 2026-04-22 21:16 | 45.97302 | 9.90906 | 18370 ft | 348 kts | 248° |
| 2026-04-22 21:17 | 45.96257 | 9.87813 | 17944 ft | 346 kts | 248° |
| 2026-04-22 21:17 | 45.95211 | 9.84719 | 17500 ft | 344 kts | 247° |
| 2026-04-22 21:17 | 45.94172 | 9.81645 | 17058 ft | 342 kts | 247° |
| 2026-04-22 21:17 | 45.93123 | 9.78549 | 16610 ft | 340 kts | 247° |
| 2026-04-22 21:18 | 45.92090 | 9.75504 | 16182 ft | 338 kts | 247° |
| 2026-04-22 21:18 | 45.91057 | 9.72463 | 15783 ft | 336 kts | 247° |
| 2026-04-22 21:18 | 45.90029 | 9.69441 | 15373 ft | 334 kts | 247° |
| 2026-04-22 21:18 | 45.89020 | 9.66480 | 14955 ft | 332 kts | 247° |
| 2026-04-22 21:19 | 45.88013 | 9.63525 | 14557 ft | 330 kts | 247° |
| 2026-04-22 21:19 | 45.87008 | 9.60582 | 14143 ft | 328 kts | 247° |
| 2026-04-22 21:19 | 45.86000 | 9.57631 | 13718 ft | 327 kts | 246° |
| 2026-04-22 21:19 | 45.85011 | 9.54739 | 13337 ft | 324 kts | 246° |
| 2026-04-22 21:20 | 45.84007 | 9.51811 | 13221 ft | 324 kts | 246° |
| 2026-04-22 21:20 | 45.83009 | 9.48905 | 13223 ft | 325 kts | 246° |
| 2026-04-22 21:20 | 45.82005 | 9.45987 | 13219 ft | 325 kts | 246° |
| 2026-04-22 21:20 | 45.81010 | 9.43097 | 13144 ft | 321 kts | 246° |
| 2026-04-22 21:21 | 45.80021 | 9.40226 | 12720 ft | 320 kts | 246° |
| 2026-04-22 21:21 | 45.79034 | 9.37365 | 12265 ft | 320 kts | 246° |
| 2026-04-22 21:21 | 45.78050 | 9.34512 | 11921 ft | 315 kts | 245° |
| 2026-04-22 21:21 | 45.77095 | 9.31753 | 11750 ft | 306 kts | 245° |
| 2026-04-22 21:22 | 45.76189 | 9.29139 | 11481 ft | 301 kts | 246° |
| 2026-04-22 21:22 | 45.75256 | 9.26438 | 11085 ft | 299 kts | 245° |
| 2026-04-22 21:22 | 45.74336 | 9.23776 | 10705 ft | 297 kts | 245° |
| 2026-04-22 21:22 | 45.73410 | 9.21103 | 10344 ft | 295 kts | 245° |
| 2026-04-22 21:23 | 45.72499 | 9.18473 | 10230 ft | 294 kts | 245° |
| 2026-04-22 21:23 | 45.71588 | 9.15854 | 10232 ft | 296 kts | 245° |
| 2026-04-22 21:23 | 45.70666 | 9.13202 | 10223 ft | 295 kts | 245° |
| 2026-04-22 21:23 | 45.69759 | 9.10599 | 9984 ft | 292 kts | 245° |
| 2026-04-22 21:24 | 45.68854 | 9.07997 | 9561 ft | 293 kts | 245° |
| 2026-04-22 21:24 | 45.67955 | 9.05420 | 9207 ft | 292 kts | 245° |
| 2026-04-22 21:24 | 45.67047 | 9.02821 | 8842 ft | 290 kts | 245° |
| 2026-04-22 21:24 | 45.66149 | 9.00249 | 8499 ft | 288 kts | 245° |
| 2026-04-22 21:25 | 45.65260 | 8.97707 | 8150 ft | 286 kts | 245° |
| 2026-04-22 21:25 | 45.64361 | 8.95145 | 7822 ft | 283 kts | 244° |
| 2026-04-22 21:25 | 45.63482 | 8.92651 | 7488 ft | 281 kts | 244° |
| 2026-04-22 21:25 | 45.62595 | 8.90184 | 7152 ft | 279 kts | 240° |
| 2026-04-22 21:26 | 45.61275 | 8.88235 | 6937 ft | 272 kts | 207° |
| 2026-04-22 21:26 | 45.59491 | 8.87689 | 6762 ft | 261 kts | 174° |
| 2026-04-22 21:26 | 45.57725 | 8.88227 | 6554 ft | 254 kts | 162° |
| 2026-04-22 21:26 | 45.56056 | 8.88929 | 6276 ft | 252 kts | 163° |
| 2026-04-22 21:27 | 45.54344 | 8.89573 | 6227 ft | 253 kts | 165° |
| 2026-04-22 21:27 | 45.52626 | 8.90130 | 6226 ft | 253 kts | 167° |
| 2026-04-22 21:27 | 45.50892 | 8.90638 | 6224 ft | 253 kts | 167° |
| 2026-04-22 21:27 | 45.49168 | 8.91119 | 6219 ft | 253 kts | 168° |
| 2026-04-22 21:28 | 45.47435 | 8.91594 | 6211 ft | 253 kts | 168° |
| 2026-04-22 21:28 | 45.45682 | 8.92070 | 6219 ft | 253 kts | 168° |
| 2026-04-22 21:28 | 45.43956 | 8.92539 | 6223 ft | 254 kts | 168° |
| 2026-04-22 21:28 | 45.42232 | 8.93005 | 6217 ft | 245 kts | 168° |
| 2026-04-22 21:29 | 45.40557 | 8.93457 | 6043 ft | 240 kts | 167° |
| 2026-04-22 21:29 | 45.38922 | 8.93900 | 5722 ft | 240 kts | 167° |
| 2026-04-22 21:29 | 45.37283 | 8.94347 | 5416 ft | 239 kts | 167° |
| 2026-04-22 21:29 | 45.35660 | 8.94788 | 5125 ft | 237 kts | 167° |
| 2026-04-22 21:30 | 45.34032 | 8.95227 | 4826 ft | 236 kts | 167° |
| 2026-04-22 21:30 | 45.32442 | 8.95657 | 4529 ft | 235 kts | 167° |
| 2026-04-22 21:30 | 45.30822 | 8.96094 | 4225 ft | 234 kts | 167° |
| 2026-04-22 21:30 | 45.29224 | 8.96528 | 4024 ft | 233 kts | 166° |
| 2026-04-22 21:31 | 45.27644 | 8.96959 | 4022 ft | 234 kts | 166° |
| 2026-04-22 21:31 | 45.26044 | 8.97393 | 4009 ft | 226 kts | 166° |
| 2026-04-22 21:31 | 45.24520 | 8.97805 | 4011 ft | 222 kts | 166° |
| 2026-04-22 21:31 | 45.23008 | 8.98214 | 4021 ft | 221 kts | 166° |
| 2026-04-22 21:32 | 45.21489 | 8.98625 | 4018 ft | 221 kts | 166° |
| 2026-04-22 21:32 | 45.19978 | 8.99032 | 4012 ft | 222 kts | 166° |
| 2026-04-22 21:32 | 45.18452 | 8.99443 | 4009 ft | 222 kts | 166° |
| 2026-04-22 21:32 | 45.16949 | 8.99846 | 4010 ft | 222 kts | 166° |
| 2026-04-22 21:33 | 45.15416 | 9.00256 | 4014 ft | 221 kts | 166° |
| 2026-04-22 21:33 | 45.13911 | 9.00655 | 4020 ft | 222 kts | 166° |
| 2026-04-22 21:33 | 45.12380 | 9.01065 | 4026 ft | 222 kts | 166° |
| 2026-04-22 21:33 | 45.10851 | 9.01474 | 4017 ft | 223 kts | 166° |
| 2026-04-22 21:34 | 45.09323 | 9.01885 | 4012 ft | 223 kts | 165° |
| 2026-04-22 21:34 | 45.07802 | 9.02224 | 3998 ft | 225 kts | 177° |
| 2026-04-22 21:34 | 45.06321 | 9.01554 | 3991 ft | 231 kts | 219° |
| 2026-04-22 21:34 | 45.05466 | 8.99633 | 4009 ft | 234 kts | 258° |
| 2026-04-22 21:35 | 45.05217 | 8.97362 | 4027 ft | 234 kts | 263° |
| 2026-04-22 21:35 | 45.04982 | 8.95104 | 4007 ft | 233 kts | 262° |
| 2026-04-22 21:35 | 45.04718 | 8.92865 | 4007 ft | 232 kts | 261° |
| 2026-04-22 21:35 | 45.04607 | 8.90583 | 3995 ft | 230 kts | 285° |
| 2026-04-22 21:36 | 45.05389 | 8.88724 | 3997 ft | 222 kts | 327° |
| 2026-04-22 21:36 | 45.06791 | 8.87955 | 4026 ft | 217 kts | 355° |
| 2026-04-22 21:36 | 45.08283 | 8.87664 | 4025 ft | 217 kts | 355° |
| 2026-04-22 21:36 | 45.09798 | 8.87326 | 4021 ft | 217 kts | 353° |
| 2026-04-22 21:37 | 45.11284 | 8.86956 | 4022 ft | 217 kts | 353° |
| 2026-04-22 21:37 | 45.12761 | 8.86570 | 4007 ft | 216 kts | 353° |
| 2026-04-22 21:37 | 45.14242 | 8.86176 | 3997 ft | 216 kts | 352° |
| 2026-04-22 21:37 | 45.15708 | 8.85783 | 3994 ft | 216 kts | 352° |
| 2026-04-22 21:38 | 45.17193 | 8.85380 | 4000 ft | 216 kts | 352° |
| 2026-04-22 21:38 | 45.18665 | 8.84980 | 3993 ft | 217 kts | 352° |
| 2026-04-22 21:38 | 45.20157 | 8.84577 | 3990 ft | 218 kts | 352° |
| 2026-04-22 21:38 | 45.21659 | 8.84168 | 4001 ft | 218 kts | 352° |
| 2026-04-22 21:39 | 45.23164 | 8.83856 | 4005 ft | 217 kts | 356° |
| 2026-04-22 21:39 | 45.24645 | 8.83616 | 3992 ft | 214 kts | 356° |
| 2026-04-22 21:39 | 45.26106 | 8.83348 | 3988 ft | 208 kts | 355° |
| 2026-04-22 21:39 | 45.27545 | 8.83051 | 3995 ft | 208 kts | 354° |
| 2026-04-22 21:40 | 45.28965 | 8.82727 | 3987 ft | 204 kts | 353° |
| 2026-04-22 21:40 | 45.30349 | 8.82387 | 3991 ft | 201 kts | 353° |
| 2026-04-22 21:40 | 45.31740 | 8.82029 | 4007 ft | 200 kts | 352° |
| 2026-04-22 21:40 | 45.33052 | 8.81676 | 4055 ft | 185 kts | 352° |
| 2026-04-22 21:41 | 45.34280 | 8.81338 | 3839 ft | 178 kts | 352° |
| 2026-04-22 21:41 | 45.35494 | 8.81000 | 3537 ft | 176 kts | 352° |
| 2026-04-22 21:41 | 45.36692 | 8.80665 | 3206 ft | 176 kts | 352° |
| 2026-04-22 21:41 | 45.37873 | 8.80333 | 3004 ft | 174 kts | 352° |
| 2026-04-22 21:42 | 45.39074 | 8.79994 | 3005 ft | 176 kts | 352° |
| 2026-04-22 21:42 | 45.40283 | 8.79654 | 3001 ft | 177 kts | 352° |
| 2026-04-22 21:42 | 45.41505 | 8.79311 | 2998 ft | 177 kts | 352° |
| 2026-04-22 21:42 | 45.42685 | 8.78978 | 2996 ft | 169 kts | 352° |
| 2026-04-22 21:43 | 45.43823 | 8.78659 | 2994 ft | 167 kts | 352° |
| 2026-04-22 21:43 | 45.44961 | 8.78342 | 2995 ft | 167 kts | 352° |
| 2026-04-22 21:43 | 45.46117 | 8.78022 | 2998 ft | 167 kts | 352° |
| 2026-04-22 21:43 | 45.47248 | 8.77708 | 3000 ft | 167 kts | 352° |
| 2026-04-22 21:44 | 45.48389 | 8.77392 | 2999 ft | 166 kts | 351° |
| 2026-04-22 21:44 | 45.49530 | 8.77076 | 2998 ft | 165 kts | 351° |
| 2026-04-22 21:44 | 45.50648 | 8.76767 | 2899 ft | 165 kts | 351° |
| 2026-04-22 21:44 | 45.51768 | 8.76457 | 2683 ft | 163 kts | 352° |
| 2026-04-22 21:45 | 45.52889 | 8.76146 | 2457 ft | 160 kts | 352° |
| 2026-04-22 21:45 | 45.53931 | 8.75857 | 2226 ft | 147 kts | 352° |
| 2026-04-22 21:45 | 45.54901 | 8.75587 | 2018 ft | 136 kts | 353° |
| 2026-04-22 21:45 | 45.55823 | 8.75333 | 1855 ft | 136 kts | 353° |
| 2026-04-22 21:46 | 45.56747 | 8.75079 | 1684 ft | 135 kts | 352° |
| 2026-04-22 21:46 | 45.57677 | 8.74823 | 1506 ft | 134 kts | 352° |
| 2026-04-22 21:46 | 45.58590 | 8.74567 | 1333 ft | 134 kts | 352° |
| 2026-04-22 21:46 | 45.59510 | 8.74329 | 1139 ft | 134 kts | 352° |
| 2026-04-22 21:47 | 45.60432 | 8.74082 | 941 ft | 134 kts | 350° |
| 2026-04-22 21:47 | 45.61346 | 8.73817 | 770 ft | 134 kts | 351° |
| 2026-04-22 21:47 | 45.62239 | 8.73556 | 714 ft | 120 kts | 351° |
| 2026-04-22 21:47 | 45.62889 | 8.73389 | 728 ft | 65 kts | 349° |
| 2026-04-22 21:48 | 45.63161 | 8.73226 | 734 ft | 30 kts | 322° |
| 2026-04-22 21:48 | 45.63252 | 8.73087 | 737 ft | 12 kts | 304° |
| 2026-04-22 21:48 | 45.63302 | 8.72983 | 738 ft | 12 kts | 304° |
| 2026-04-22 21:48 | 45.63348 | 8.72887 | 740 ft | 9 kts | 304° |
| 2026-04-22 21:49 | 45.63385 | 8.72807 | 742 ft | 9 kts | 300° |
| 2026-04-22 21:49 | 45.63407 | 8.72714 | 743 ft | 10 kts | 278° |
| 2026-04-22 21:49 | 45.63407 | 8.72606 | 743 ft | 11 kts | 261° |
| 2026-04-22 21:49 | 45.63390 | 8.72484 | 743 ft | 12 kts | 259° |
| 2026-04-22 21:50 | 45.63374 | 8.72358 | 744 ft | 13 kts | 259° |
| 2026-04-22 21:50 | 45.63356 | 8.72226 | 744 ft | 14 kts | 259° |
| 2026-04-22 21:50 | 45.63336 | 8.72085 | 744 ft | 14 kts | 259° |
| 2026-04-22 21:50 | 45.63316 | 8.71940 | 744 ft | 15 kts | 258° |
| 2026-04-22 21:51 | 45.63295 | 8.71783 | 744 ft | 16 kts | 259° |
| 2026-04-22 21:51 | 45.63247 | 8.71668 | 743 ft | 14 kts | 183° |
| 2026-04-22 21:51 | 45.63142 | 8.71697 | 741 ft | 16 kts | 168° |
| 2026-04-22 21:52 | 45.63088 | 8.71625 | 740 ft | 4 kts | 259° |
| 2026-04-22 21:52 | 45.63085 | 8.71607 | 740 ft | 0 kts | 259° |
| 2026-04-22 21:52 | 45.63083 | 8.71597 | 740 ft | 0 kts | 259° |
| 2026-04-22 21:52 | 45.63083 | 8.71591 | 740 ft | 0 kts | 259° |